Warning: fopen(/var/www/metroair/shared/private/wxdata/TAF/AVWX/taf_EDDL): failed to open stream: Permission denied in /var/www/metroair/shared/private/library/orig_library/lib_airport.php on line 533

Warning: fwrite() expects parameter 1 to be resource, boolean given in /var/www/metroair/shared/private/library/orig_library/lib_airport.php on line 534

Warning: fclose() expects parameter 1 to be resource, boolean given in /var/www/metroair/shared/private/library/orig_library/lib_airport.php on line 535

MET6260 - Dusseldorf to London Heathrow

Boeing 737-800
G-FLII - Fly UK
1 hr 05 mins
271 nm
Fly UK Codeshare - SU | M | W | F

Departure

Departing from
Dusseldorf (DUS)
Departure gate
Unassigned
Scheduled Departure
GMT 1750
Local 1850
METAR EDDL 221350Z 24003KT 190V270 CAVOK 03/M07 Q1026 NOSIG
TAF TAF EDDL 221100Z 2212/2318 VRB03KT CAVOK TEMPO 2302/2309 4000 BR BKN008 BECMG 2309/2311 4000 BR OVC007 TEMPO 2309/2318 2000 BR OVC004
  • No charts available

Arrival

Arriving at
London Heathrow (LHR)
Arrival gate
Terminal 3
Scheduled Arrival
GMT 1855
Local 1855
METAR EGLL 221350Z AUTO VRB02KT 7000 NCD 06/01 Q1027 NOSIG
TAF TAF EGLL 221058Z 2212/2318 VRB03KT 6000 FEW025 TEMPO 2212/2215 4800 HZ PROB30 TEMPO 2214/2217 9999 BECMG 2217/2220 4500 BR PROB30 2300/2302 0500 FZFG BKN000 PROB40 2302/2312 0200 FZFG VV/// PROB30 TEMPO 2312/2318 0500 FG BKN001

Route Map

Return Flights

MET6259 (Operated by Fly UK)
Boeing 737-800
1615 GMT

Popularity

Hub Current Bids PiReps this month Total PiReps
KMCI 0 0 0
KLAX 0 0 0
KBOS 0 0 0